Decoded Metar for KDAN (DANVILLE in VA, USA) (IATA:DAN) | Meteo·Mobile Aviation Weather
aviador You're here:

KDAN Decoded Metar

DANVILLE in VA, USA
Report Time2018-09-22 18:53:00
UTC Time2018-09-22 19:22:35
Flight Rules vfr VFR
Wind070° at 05 kt
W.Decomp.*RWY 13: 3.1 kt HW 3.9 kt LCW
RWY 02: 2.6 kt HW 4.3 kt RCW
W.Rank070° ranks 13
Current wind is below 070° avg. (5.2)
Visibility9999 m
Phenomena:N/A
Clouds:Scattered 041 Hf
Broken 060 Hf
Expected CloudBase > 3,200 ft AGL from Temp-Dew spread
Ceiling6,000 ft
Temp29°C (ISA +15)
Dew Point21°C (62% RH)
Heat Index31.3°C
QNH1018 hPa
Density Alt2,474 ft
Elevation574 ft
Report Wrong Elevation
Raw Report
METAR KDAN 221853Z AUTO 07005KT 10SM SCT041 BKN060 29/21 A3006 RMK
AO2 SLP170 T02940211=

Extra information for KDAN:More info

Metar Taf Metar & Taf Last 4 Metars F.Rules Stats Wind Profile Meteogram Temp Stats Airport Information Weather charts Add Link Nearby VenuesMetar ALERT Operation Metar Decoded Social comments

AIRNAV info for KDAN